createdAt,value
2022-12-04T00:00:19.013Z,0.00
2022-12-04T00:01:19.022Z,0.00
2022-12-04T00:02:19.022Z,0.00
2022-12-04T00:03:19.089Z,0.00
2022-12-04T00:04:19.100Z,0.00
2022-12-04T00:05:19.043Z,0.00
2022-12-04T00:06:19.040Z,0.00
2022-12-04T00:07:19.069Z,0.00
2022-12-04T00:08:19.100Z,0.00
2022-12-04T00:09:19.060Z,0.00
2022-12-04T00:10:19.063Z,0.00
2022-12-04T00:11:19.071Z,0.00
2022-12-04T00:12:19.072Z,0.00
2022-12-04T00:13:19.079Z,0.00
2022-12-04T00:14:19.085Z,0.00
2022-12-04T00:15:26.971Z,0.00
2022-12-04T00:16:19.164Z,0.00
2022-12-04T00:17:19.097Z,0.00
2022-12-04T00:18:19.101Z,0.00
2022-12-04T00:19:19.109Z,0.00
2022-12-04T00:20:19.110Z,0.00
2022-12-04T00:21:19.121Z,0.00
2022-12-04T00:22:19.118Z,0.00
2022-12-04T00:23:19.247Z,0.00
2022-12-04T00:24:19.134Z,0.00
2022-12-04T00:25:19.141Z,0.00
2022-12-04T00:26:19.144Z,0.00
2022-12-04T00:27:19.148Z,0.00
2022-12-04T00:28:19.151Z,0.00
2022-12-04T00:29:19.170Z,0.00
2022-12-04T00:30:19.160Z,0.00
2022-12-04T00:31:19.266Z,0.00
2022-12-04T00:32:19.170Z,0.00
2022-12-04T00:33:19.184Z,0.00
2022-12-04T00:34:19.183Z,0.00
2022-12-04T00:35:19.187Z,0.00
2022-12-04T00:36:19.191Z,0.00
2022-12-04T00:37:19.201Z,0.00
2022-12-04T00:38:19.231Z,0.00
2022-12-04T00:39:19.230Z,0.00
2022-12-04T00:40:19.209Z,0.00
2022-12-04T00:41:19.216Z,0.00
2022-12-04T00:42:19.221Z,0.00
2022-12-04T00:43:19.227Z,0.00
2022-12-04T00:44:19.228Z,0.00
2022-12-04T00:45:19.243Z,0.00
2022-12-04T00:46:19.325Z,0.00
2022-12-04T00:47:19.251Z,0.00
2022-12-04T00:48:19.248Z,0.00
2022-12-04T00:49:19.260Z,0.00
2022-12-04T00:50:19.260Z,0.00
2022-12-04T00:51:19.267Z,0.00
2022-12-04T00:52:19.268Z,0.00
2022-12-04T00:53:19.279Z,0.00
2022-12-04T00:54:19.277Z,0.00
2022-12-04T00:55:19.309Z,0.00
2022-12-04T00:56:19.287Z,0.00
2022-12-04T00:57:19.297Z,0.00
2022-12-04T00:58:19.298Z,0.00
2022-12-04T00:59:19.307Z,0.00
2022-12-04T01:00:19.309Z,0.00
2022-12-04T01:01:19.397Z,0.00
2022-12-04T01:02:19.317Z,0.00
2022-12-04T01:03:19.373Z,0.00
2022-12-04T01:04:19.329Z,0.00
2022-12-04T01:05:19.358Z,0.00
2022-12-04T01:06:19.336Z,0.00
2022-12-04T01:07:19.345Z,0.00
2022-12-04T01:08:19.390Z,0.00
2022-12-04T01:09:19.375Z,0.00
2022-12-04T01:10:19.359Z,0.00
2022-12-04T01:11:19.371Z,0.00
2022-12-04T01:12:21.104Z,0.00
2022-12-04T01:13:19.394Z,0.00
2022-12-04T01:14:19.376Z,0.00
2022-12-04T01:15:19.386Z,0.00
2022-12-04T01:16:19.481Z,0.00
2022-12-04T01:17:19.405Z,0.00
2022-12-04T01:18:19.396Z,0.00
2022-12-04T01:19:19.420Z,0.00
2022-12-04T01:20:19.415Z,0.00
2022-12-04T01:21:19.414Z,0.00
2022-12-04T01:22:19.416Z,0.00
2022-12-04T01:23:19.427Z,0.00
2022-12-04T01:24:19.425Z,0.00
2022-12-04T01:25:19.434Z,0.00
2022-12-04T01:26:19.437Z,0.00
2022-12-04T01:27:19.450Z,0.00
2022-12-04T01:28:19.470Z,0.00
2022-12-04T01:29:19.455Z,0.00
2022-12-04T01:30:19.459Z,0.00
2022-12-04T01:31:19.501Z,0.00
2022-12-04T01:32:19.466Z,0.00
2022-12-04T01:33:19.477Z,0.00
2022-12-04T01:34:19.478Z,0.00
2022-12-04T01:35:19.487Z,0.00
2022-12-04T01:36:19.491Z,0.00
2022-12-04T01:37:19.495Z,0.00
2022-12-04T01:38:19.498Z,0.00
2022-12-04T01:39:19.523Z,0.00
2022-12-04T01:40:19.508Z,0.00
2022-12-04T01:41:19.517Z,0.00
2022-12-04T01:42:19.517Z,0.00
2022-12-04T01:43:19.530Z,0.00
2022-12-04T01:44:19.549Z,0.00
2022-12-04T01:45:19.537Z,0.00
2022-12-04T01:46:19.594Z,0.00
2022-12-04T01:47:19.547Z,0.00
2022-12-04T01:48:19.550Z,0.00
2022-12-04T01:49:19.556Z,0.00
2022-12-04T01:50:19.560Z,0.00
2022-12-04T01:51:19.563Z,0.00
2022-12-04T01:52:19.577Z,0.00
2022-12-04T01:53:19.578Z,0.00
2022-12-04T01:54:19.580Z,0.00
2022-12-04T01:55:19.586Z,0.00
2022-12-04T01:56:19.590Z,0.00
2022-12-04T01:57:19.597Z,0.00
2022-12-04T01:58:19.597Z,0.00
2022-12-04T01:59:19.607Z,0.00
2022-12-04T02:00:19.631Z,0.00
2022-12-04T02:01:19.642Z,0.00
2022-12-04T02:02:19.861Z,0.00
2022-12-04T02:03:19.625Z,0.00
2022-12-04T02:04:19.632Z,0.00
2022-12-04T02:05:19.639Z,0.00
2022-12-04T02:06:19.636Z,0.00
2022-12-04T02:07:19.647Z,0.00
2022-12-04T02:08:19.766Z,0.00
2022-12-04T02:09:25.950Z,0.00
2022-12-04T02:10:19.658Z,0.00
2022-12-04T02:11:19.669Z,0.00
2022-12-04T02:12:19.669Z,0.00
2022-12-04T02:13:19.678Z,0.00
2022-12-04T02:14:19.679Z,0.00
2022-12-04T02:15:19.689Z,0.00
2022-12-04T02:16:19.769Z,0.00
2022-12-04T02:17:19.701Z,0.00
2022-12-04T02:18:19.698Z,0.00
2022-12-04T02:19:19.709Z,0.00
2022-12-04T02:20:19.815Z,0.00
2022-12-04T02:21:19.718Z,0.00
2022-12-04T02:22:19.719Z,0.00
2022-12-04T02:23:19.730Z,0.00
2022-12-04T02:24:19.730Z,0.00
2022-12-04T02:25:19.740Z,0.00
2022-12-04T02:26:19.740Z,0.00
2022-12-04T02:27:19.748Z,0.00
2022-12-04T02:28:19.752Z,0.00
2022-12-04T02:29:19.760Z,0.00
2022-12-04T02:30:19.775Z,0.00
2022-12-04T02:31:19.895Z,0.00
2022-12-04T02:32:19.796Z,0.00
2022-12-04T02:33:19.778Z,0.00
2022-12-04T02:34:19.779Z,0.00
2022-12-04T02:35:19.800Z,0.00
2022-12-04T02:36:19.791Z,0.00
2022-12-04T02:37:19.807Z,0.00
2022-12-04T02:38:19.802Z,0.00
2022-12-04T02:39:19.812Z,0.00
2022-12-04T02:40:19.812Z,0.00
2022-12-04T02:41:19.818Z,0.00
2022-12-04T02:42:19.822Z,0.00
2022-12-04T02:43:19.830Z,0.00
2022-12-04T02:44:19.831Z,0.00
2022-12-04T02:45:19.843Z,0.00
2022-12-04T02:46:19.936Z,0.00
2022-12-04T02:47:19.851Z,0.00
2022-12-04T02:48:19.876Z,0.00
2022-12-04T02:49:19.862Z,0.00
2022-12-04T02:50:19.862Z,0.00
2022-12-04T02:51:19.870Z,0.00
2022-12-04T02:52:19.873Z,0.00
2022-12-04T02:53:19.885Z,0.00
2022-12-04T02:54:19.880Z,0.00
2022-12-04T02:55:19.891Z,0.00
2022-12-04T02:56:19.896Z,0.00
2022-12-04T02:57:19.901Z,0.00
2022-12-04T02:58:19.904Z,0.00
2022-12-04T02:59:19.915Z,0.00
2022-12-04T03:00:19.921Z,0.00
2022-12-04T03:01:20.066Z,0.00
2022-12-04T03:02:19.959Z,0.00
2022-12-04T03:03:19.936Z,0.00
2022-12-04T03:04:19.961Z,0.00
2022-12-04T03:05:19.944Z,0.00
2022-12-04T03:06:19.943Z,0.00
2022-12-04T03:07:19.958Z,0.00
2022-12-04T03:08:20.051Z,0.00
2022-12-04T03:09:19.976Z,0.00
2022-12-04T03:10:19.993Z,0.00
2022-12-04T03:11:19.972Z,0.00
2022-12-04T03:12:19.986Z,0.00
2022-12-04T03:13:19.987Z,0.00
2022-12-04T03:14:19.984Z,0.00
2022-12-04T03:15:19.993Z,0.00
2022-12-04T03:16:20.065Z,0.00
2022-12-04T03:17:20.005Z,0.00
2022-12-04T03:18:20.005Z,0.00
2022-12-04T03:19:20.014Z,0.00
2022-12-04T03:20:20.044Z,0.00
2022-12-04T03:21:20.023Z,0.00
2022-12-04T03:22:20.028Z,0.00
2022-12-04T03:23:20.093Z,0.00
2022-12-04T03:24:20.038Z,0.00
2022-12-04T03:25:20.044Z,0.00
2022-12-04T03:26:20.052Z,0.00
2022-12-04T03:27:20.060Z,0.00
2022-12-04T03:28:20.100Z,0.00
2022-12-04T03:29:20.063Z,0.00
2022-12-04T03:30:20.070Z,0.00
2022-12-04T03:31:20.247Z,0.00
2022-12-04T03:32:20.079Z,0.00
2022-12-04T03:33:20.085Z,0.00
2022-12-04T03:34:20.089Z,0.00
2022-12-04T03:35:20.093Z,0.00
2022-12-04T03:36:20.123Z,0.00
2022-12-04T03:37:20.109Z,0.00
2022-12-04T03:38:20.112Z,0.00
2022-12-04T03:39:20.113Z,0.00
2022-12-04T03:40:20.122Z,0.00
2022-12-04T03:41:20.125Z,0.00
2022-12-04T03:42:20.129Z,0.00
2022-12-04T03:43:20.140Z,0.00
2022-12-04T03:44:20.151Z,0.00
2022-12-04T03:45:20.152Z,0.00
2022-12-04T03:46:20.214Z,0.00
2022-12-04T03:47:20.154Z,0.00
2022-12-04T03:48:23.182Z,0.00
2022-12-04T03:49:20.171Z,0.00
2022-12-04T03:50:20.171Z,0.00
2022-12-04T03:51:20.174Z,0.00
2022-12-04T03:52:20.208Z,0.00
2022-12-04T03:53:20.187Z,0.00
2022-12-04T03:54:20.199Z,0.00
2022-12-04T03:55:20.194Z,0.00
2022-12-04T03:56:20.209Z,0.00
2022-12-04T03:57:20.205Z,0.00
2022-12-04T03:58:20.212Z,0.00
2022-12-04T03:59:20.222Z,0.00
2022-12-04T04:00:20.231Z,0.00
2022-12-04T04:01:20.324Z,0.00
2022-12-04T04:02:20.318Z,0.00
2022-12-04T04:03:20.239Z,0.00
2022-12-04T04:04:20.251Z,0.00
2022-12-04T04:05:20.263Z,0.00
2022-12-04T04:06:20.258Z,0.00
2022-12-04T04:07:20.256Z,0.00
2022-12-04T04:08:20.397Z,0.00
2022-12-04T04:09:20.276Z,0.00
2022-12-04T04:10:20.276Z,0.00
2022-12-04T04:11:20.279Z,0.00
2022-12-04T04:12:20.286Z,0.00
2022-12-04T04:13:20.309Z,0.00
2022-12-04T04:14:20.299Z,0.00
2022-12-04T04:15:20.299Z,0.00
2022-12-04T04:16:20.346Z,0.00
2022-12-04T04:17:20.310Z,0.00
2022-12-04T04:18:20.316Z,0.00
2022-12-04T04:19:20.319Z,0.00
2022-12-04T04:20:20.330Z,0.00
2022-12-04T04:21:20.376Z,0.00
2022-12-04T04:22:20.343Z,0.00
2022-12-04T04:23:20.341Z,0.00
2022-12-04T04:24:20.385Z,0.00
2022-12-04T04:25:20.395Z,0.00
2022-12-04T04:26:20.361Z,0.00
2022-12-04T04:27:20.362Z,0.00
2022-12-04T04:28:20.384Z,0.00
2022-12-04T04:29:20.373Z,0.00
2022-12-04T04:30:20.380Z,0.00
2022-12-04T04:31:20.441Z,0.00
2022-12-04T04:32:20.400Z,0.00
2022-12-04T04:33:20.393Z,0.00
2022-12-04T04:34:20.404Z,0.00
2022-12-04T04:35:20.404Z,0.00
2022-12-04T04:36:20.415Z,0.00
2022-12-04T04:37:20.415Z,0.00
2022-12-04T04:38:20.430Z,0.00
2022-12-04T04:39:20.425Z,0.00
2022-12-04T04:40:20.461Z,0.00
2022-12-04T04:41:20.436Z,0.00
2022-12-04T04:42:20.443Z,0.00
2022-12-04T04:43:20.445Z,0.00
2022-12-04T04:44:20.455Z,0.00
2022-12-04T04:45:20.457Z,0.00
2022-12-04T04:46:20.500Z,0.00
2022-12-04T04:47:20.465Z,0.00
2022-12-04T04:48:20.510Z,0.00
2022-12-04T04:49:20.478Z,0.00
2022-12-04T04:50:20.485Z,0.00
2022-12-04T04:51:20.589Z,0.00
2022-12-04T04:52:20.497Z,0.00
2022-12-04T04:53:20.498Z,0.00
2022-12-04T04:54:20.505Z,0.00
2022-12-04T04:55:20.511Z,0.00
2022-12-04T04:56:20.541Z,0.00
2022-12-04T04:57:20.518Z,0.00
2022-12-04T04:58:20.530Z,0.00
2022-12-04T04:59:20.531Z,0.00
2022-12-04T05:00:20.543Z,0.00
2022-12-04T05:01:20.616Z,0.00
2022-12-04T05:02:20.548Z,0.00
2022-12-04T05:03:20.591Z,0.00
2022-12-04T05:04:20.567Z,0.00
2022-12-04T05:05:20.563Z,0.00
2022-12-04T05:06:20.579Z,0.00
2022-12-04T05:07:20.572Z,0.00
2022-12-04T05:08:20.678Z,0.00
2022-12-04T05:09:20.586Z,0.00
2022-12-04T05:10:20.596Z,0.00
2022-12-04T05:11:20.599Z,0.00
2022-12-04T05:12:20.626Z,0.00
2022-12-04T05:13:20.610Z,0.00
2022-12-04T05:14:20.617Z,0.00
2022-12-04T05:15:20.630Z,0.00
2022-12-04T05:16:20.703Z,0.00
2022-12-04T05:17:20.626Z,0.00
2022-12-04T05:18:20.632Z,0.00
2022-12-04T05:19:20.635Z,0.00
2022-12-04T05:20:20.644Z,0.00
2022-12-04T05:21:20.645Z,0.00
2022-12-04T05:22:20.656Z,0.00
2022-12-04T05:23:20.656Z,0.00
2022-12-04T05:24:20.666Z,0.00
2022-12-04T05:25:20.672Z,0.00
2022-12-04T05:26:20.680Z,0.00
2022-12-04T05:27:20.681Z,0.00
2022-12-04T05:28:20.710Z,0.00
2022-12-04T05:29:20.692Z,0.00
2022-12-04T05:30:20.695Z,0.00
2022-12-04T05:31:20.746Z,0.00
2022-12-04T05:32:20.711Z,0.00
2022-12-04T05:33:20.712Z,0.00
2022-12-04T05:34:20.716Z,0.00
2022-12-04T05:35:20.721Z,0.00
2022-12-04T05:36:20.729Z,0.00
2022-12-04T05:37:20.731Z,0.00
2022-12-04T05:38:20.737Z,0.00
2022-12-04T05:39:20.742Z,0.00
2022-12-04T05:40:20.750Z,0.00
2022-12-04T05:41:20.751Z,0.00
2022-12-04T05:42:20.768Z,0.00
2022-12-04T05:43:20.762Z,0.00
2022-12-04T05:44:20.801Z,0.00
2022-12-04T05:45:20.874Z,0.00
2022-12-04T05:46:20.856Z,0.00
2022-12-04T05:47:20.783Z,0.00
2022-12-04T05:48:20.793Z,0.00
2022-12-04T05:49:20.805Z,0.00
2022-12-04T05:50:20.811Z,0.00
2022-12-04T05:51:20.812Z,0.00
2022-12-04T05:52:20.815Z,0.00
2022-12-04T05:53:20.816Z,0.00
2022-12-04T05:54:20.840Z,0.00
2022-12-04T05:55:20.825Z,0.00
2022-12-04T05:56:20.834Z,0.00
2022-12-04T05:57:24.134Z,0.00
2022-12-04T05:58:20.849Z,0.00
2022-12-04T05:59:20.847Z,0.00
2022-12-04T06:00:20.879Z,0.00
2022-12-04T06:01:20.858Z,0.00
2022-12-04T06:02:20.955Z,0.00
2022-12-04T06:03:20.911Z,0.00
2022-12-04T06:04:20.879Z,0.00
2022-12-04T06:05:20.880Z,0.00
2022-12-04T06:06:22.135Z,0.00
2022-12-04T06:07:20.889Z,0.00
2022-12-04T06:08:20.939Z,0.00
2022-12-04T06:09:20.906Z,0.00
2022-12-04T06:10:20.908Z,0.00
2022-12-04T06:11:20.912Z,0.00
2022-12-04T06:12:20.921Z,0.00
2022-12-04T06:13:20.925Z,0.00
2022-12-04T06:14:20.938Z,0.00
2022-12-04T06:15:20.936Z,0.00
2022-12-04T06:16:21.075Z,0.00
2022-12-04T06:17:20.945Z,0.00
2022-12-04T06:18:20.953Z,0.00
2022-12-04T06:19:20.971Z,0.00
2022-12-04T06:20:21.066Z,0.00
2022-12-04T06:21:20.967Z,0.00
2022-12-04T06:22:20.971Z,0.00
2022-12-04T06:23:20.986Z,0.00
2022-12-04T06:24:20.984Z,0.00
2022-12-04T06:25:20.990Z,0.00
2022-12-04T06:26:21.002Z,0.00
2022-12-04T06:27:28.823Z,0.00
2022-12-04T06:28:21.011Z,0.00
2022-12-04T06:29:21.012Z,0.00
2022-12-04T06:30:21.018Z,0.00
2022-12-04T06:31:21.069Z,0.00
2022-12-04T06:32:22.036Z,0.00
2022-12-04T06:33:21.029Z,0.00
2022-12-04T06:34:21.049Z,0.00
2022-12-04T06:35:21.042Z,0.00
2022-12-04T06:36:21.129Z,0.00
2022-12-04T06:37:21.053Z,0.00
2022-12-04T06:38:21.065Z,0.00
2022-12-04T06:39:21.087Z,0.00
2022-12-04T06:40:21.070Z,0.00
2022-12-04T06:41:21.125Z,4.00
2022-12-04T06:42:21.088Z,0.00
2022-12-04T06:43:21.084Z,0.00
2022-12-04T06:44:21.092Z,0.00
2022-12-04T06:45:21.092Z,0.00
2022-12-04T06:46:21.260Z,4.00
2022-12-04T06:47:21.104Z,4.00
2022-12-04T06:48:21.134Z,0.00
2022-12-04T06:49:21.114Z,0.00
2022-12-04T06:50:21.125Z,4.00
2022-12-04T06:51:21.123Z,4.00
2022-12-04T06:52:21.133Z,0.00
2022-12-04T06:53:21.136Z,0.00
2022-12-04T06:54:21.148Z,4.00
2022-12-04T06:55:21.146Z,4.00
2022-12-04T06:56:21.153Z,0.00
2022-12-04T06:57:21.159Z,4.00
2022-12-04T06:58:21.166Z,4.00
2022-12-04T06:59:21.168Z,4.00
2022-12-04T07:00:21.174Z,4.00
2022-12-04T07:01:21.253Z,8.00
2022-12-04T07:02:21.253Z,4.00
2022-12-04T07:03:21.189Z,4.00
2022-12-04T07:04:21.222Z,8.00
2022-12-04T07:05:21.199Z,8.00
2022-12-04T07:06:21.249Z,8.00
2022-12-04T07:07:21.209Z,8.00
2022-12-04T07:08:21.219Z,8.00
2022-12-04T07:09:21.226Z,12.00
2022-12-04T07:10:21.228Z,8.00
2022-12-04T07:11:21.230Z,12.00
2022-12-04T07:12:21.239Z,12.00
2022-12-04T07:13:21.240Z,12.00
2022-12-04T07:14:21.252Z,12.00
2022-12-04T07:15:21.252Z,12.00
2022-12-04T07:16:21.349Z,16.00
2022-12-04T07:17:21.261Z,12.00
2022-12-04T07:18:21.272Z,12.00
2022-12-04T07:19:21.273Z,16.00
2022-12-04T07:20:21.305Z,16.00
2022-12-04T07:21:21.287Z,16.00
2022-12-04T07:22:21.293Z,20.00
2022-12-04T07:23:21.298Z,20.00
2022-12-04T07:24:21.305Z,20.00
2022-12-04T07:25:21.307Z,24.00
2022-12-04T07:26:21.315Z,24.00
2022-12-04T07:27:21.314Z,24.00
2022-12-04T07:28:21.327Z,24.00
2022-12-04T07:29:21.346Z,24.00
2022-12-04T07:30:21.336Z,24.00
2022-12-04T07:31:21.391Z,24.00
2022-12-04T07:32:21.348Z,28.00
2022-12-04T07:33:21.363Z,28.00
2022-12-04T07:34:21.359Z,32.00
2022-12-04T07:35:21.359Z,32.00
2022-12-04T07:36:21.391Z,36.00
2022-12-04T07:37:21.372Z,36.00
2022-12-04T07:38:21.380Z,40.00
2022-12-04T07:39:21.384Z,40.00
2022-12-04T07:40:21.390Z,40.00
2022-12-04T07:41:21.399Z,48.00
2022-12-04T07:42:24.230Z,48.00
2022-12-04T07:43:21.409Z,48.00
2022-12-04T07:44:21.411Z,48.00
2022-12-04T07:45:21.416Z,52.00
2022-12-04T07:46:21.499Z,52.00
2022-12-04T07:47:21.432Z,56.00
2022-12-04T07:48:21.432Z,56.00
2022-12-04T07:49:21.440Z,56.00
2022-12-04T07:50:21.441Z,56.00
2022-12-04T07:51:21.458Z,56.00
2022-12-04T07:52:21.478Z,56.00
2022-12-04T07:53:21.465Z,60.00
2022-12-04T07:54:21.462Z,60.00
2022-12-04T07:55:23.276Z,60.00
2022-12-04T07:56:21.472Z,60.00
2022-12-04T07:57:21.487Z,60.00
2022-12-04T07:58:21.484Z,64.00
2022-12-04T07:59:21.497Z,64.00
2022-12-04T08:00:21.496Z,64.00
2022-12-04T08:01:21.675Z,68.00
2022-12-04T08:02:21.506Z,68.00
2022-12-04T08:03:21.514Z,68.00
2022-12-04T08:04:21.540Z,68.00
2022-12-04T08:05:21.527Z,68.00
2022-12-04T08:06:21.527Z,72.00
2022-12-04T08:07:21.537Z,76.00
2022-12-04T08:08:21.608Z,76.00
2022-12-04T08:09:21.549Z,76.00
2022-12-04T08:10:21.552Z,76.00
2022-12-04T08:11:21.560Z,80.00
2022-12-04T08:12:21.561Z,84.00
2022-12-04T08:13:21.571Z,84.00
2022-12-04T08:14:21.580Z,88.00
2022-12-04T08:15:21.581Z,92.00
2022-12-04T08:16:21.636Z,92.00
2022-12-04T08:17:21.685Z,96.00
2022-12-04T08:18:21.594Z,96.00
2022-12-04T08:19:21.601Z,96.00
2022-12-04T08:20:21.623Z,100.00
2022-12-04T08:21:21.619Z,104.00
2022-12-04T08:22:25.096Z,104.00
2022-12-04T08:23:21.626Z,108.00
2022-12-04T08:24:21.651Z,112.00
2022-12-04T08:25:21.635Z,112.00
2022-12-04T08:26:21.643Z,116.00
2022-12-04T08:27:21.645Z,120.00
2022-12-04T08:28:21.650Z,120.00
2022-12-04T08:29:21.660Z,124.00
2022-12-04T08:30:21.659Z,120.00
2022-12-04T08:31:21.791Z,120.00
2022-12-04T08:32:21.671Z,120.00
2022-12-04T08:33:21.680Z,124.00
2022-12-04T08:34:21.687Z,124.00
2022-12-04T08:35:21.704Z,124.00
2022-12-04T08:36:21.703Z,124.00
2022-12-04T08:37:21.704Z,124.00
2022-12-04T08:38:21.715Z,124.00
2022-12-04T08:39:21.711Z,124.00
2022-12-04T08:40:21.755Z,124.00
2022-12-04T08:41:21.724Z,128.00
2022-12-04T08:42:21.725Z,128.00
2022-12-04T08:43:21.736Z,128.00
2022-12-04T08:44:21.739Z,128.00
2022-12-04T08:45:21.847Z,128.00
2022-12-04T08:46:21.863Z,128.00
2022-12-04T08:47:21.757Z,128.00
2022-12-04T08:48:21.761Z,132.00
2022-12-04T08:49:21.774Z,136.00
2022-12-04T08:50:21.768Z,136.00
2022-12-04T08:51:21.786Z,144.00
2022-12-04T08:52:21.785Z,148.00
2022-12-04T08:53:21.794Z,152.00
2022-12-04T08:54:21.794Z,152.00
2022-12-04T08:55:21.901Z,156.00
2022-12-04T08:56:21.824Z,152.00
2022-12-04T08:57:21.813Z,152.00
2022-12-04T08:58:21.816Z,152.00
2022-12-04T08:59:21.824Z,148.00
2022-12-04T09:00:21.826Z,148.00
2022-12-04T09:01:21.920Z,140.00
2022-12-04T09:02:21.848Z,136.00
2022-12-04T09:03:27.542Z,136.00
2022-12-04T09:04:21.925Z,132.00
2022-12-04T09:05:21.859Z,128.00
2022-12-04T09:06:21.859Z,128.00
2022-12-04T09:07:21.869Z,128.00
2022-12-04T09:08:21.928Z,128.00
2022-12-04T09:09:21.880Z,132.00
2022-12-04T09:10:21.890Z,136.00
2022-12-04T09:11:21.889Z,140.00
2022-12-04T09:12:21.921Z,144.00
2022-12-04T09:13:21.906Z,144.00
2022-12-04T09:14:21.905Z,144.00
2022-12-04T09:15:21.917Z,144.00
2022-12-04T09:16:22.081Z,148.00
2022-12-04T09:17:21.926Z,152.00
2022-12-04T09:18:21.928Z,152.00
2022-12-04T09:19:21.938Z,156.00
2022-12-04T09:20:21.937Z,156.00
2022-12-04T09:21:21.946Z,156.00
2022-12-04T09:22:21.949Z,160.00
2022-12-04T09:23:21.957Z,164.00
2022-12-04T09:24:21.963Z,164.00
2022-12-04T09:25:21.970Z,164.00
2022-12-04T09:26:21.972Z,164.00
2022-12-04T09:27:21.981Z,168.00
2022-12-04T09:28:22.006Z,164.00
2022-12-04T09:29:21.994Z,164.00
2022-12-04T09:30:21.994Z,160.00
2022-12-04T09:31:22.070Z,164.00
2022-12-04T09:32:22.005Z,160.00
2022-12-04T09:33:22.014Z,164.00
2022-12-04T09:34:22.024Z,164.00
2022-12-04T09:35:22.027Z,164.00
2022-12-04T09:36:22.039Z,168.00
2022-12-04T09:37:22.043Z,168.00
2022-12-04T09:38:22.049Z,168.00
2022-12-04T09:39:22.051Z,176.00
2022-12-04T09:40:22.052Z,180.00
2022-12-04T09:41:22.061Z,184.00
2022-12-04T09:42:22.062Z,184.00
2022-12-04T09:43:22.074Z,184.00
2022-12-04T09:44:22.099Z,188.00
2022-12-04T09:45:22.084Z,192.00
2022-12-04T09:46:22.143Z,192.00
2022-12-04T09:47:22.098Z,196.00
2022-12-04T09:48:22.100Z,192.00
2022-12-04T09:49:22.108Z,196.00
2022-12-04T09:50:22.113Z,192.00
2022-12-04T09:51:22.119Z,188.00
2022-12-04T09:52:22.296Z,192.00
2022-12-04T09:53:22.133Z,192.00
2022-12-04T09:54:22.133Z,196.00
2022-12-04T09:55:22.141Z,200.00
2022-12-04T09:56:22.151Z,200.00
2022-12-04T09:57:22.158Z,204.00
2022-12-04T09:58:22.159Z,204.00
2022-12-04T09:59:22.185Z,212.00
2022-12-04T10:00:22.207Z,208.00
2022-12-04T10:01:22.177Z,208.00
2022-12-04T10:02:22.288Z,212.00
2022-12-04T10:03:22.348Z,212.00
2022-12-04T10:04:22.269Z,208.00
2022-12-04T10:05:22.202Z,208.00
2022-12-04T10:06:22.203Z,208.00
2022-12-04T10:07:22.214Z,212.00
2022-12-04T10:08:22.382Z,212.00
2022-12-04T10:09:22.226Z,216.00
2022-12-04T10:10:22.291Z,216.00
2022-12-04T10:11:22.236Z,220.00
2022-12-04T10:12:22.238Z,220.00
2022-12-04T10:13:22.250Z,224.00
2022-12-04T10:14:22.250Z,224.00
2022-12-04T10:15:22.257Z,224.00
2022-12-04T10:16:22.394Z,228.00
2022-12-04T10:17:22.274Z,232.00
2022-12-04T10:18:22.273Z,232.00
2022-12-04T10:19:22.280Z,240.00
2022-12-04T10:20:22.379Z,240.00
2022-12-04T10:21:22.294Z,244.00
2022-12-04T10:22:22.295Z,244.00
2022-12-04T10:23:22.307Z,248.00
2022-12-04T10:24:22.306Z,248.00
2022-12-04T10:25:22.315Z,252.00
2022-12-04T10:26:22.320Z,256.00
2022-12-04T10:27:22.329Z,256.00
2022-12-04T10:28:22.331Z,264.00
2022-12-04T10:29:22.339Z,268.00
2022-12-04T10:30:22.427Z,276.00
2022-12-04T10:31:22.432Z,284.00
2022-12-04T10:32:22.376Z,288.00
2022-12-04T10:33:22.373Z,296.00
2022-12-04T10:34:22.364Z,304.00
2022-12-04T10:35:22.379Z,308.00
2022-12-04T10:36:22.379Z,312.00
2022-12-04T10:37:22.389Z,316.00
2022-12-04T10:38:22.388Z,316.00
2022-12-04T10:39:22.408Z,316.00
2022-12-04T10:40:22.400Z,312.00
2022-12-04T10:41:22.412Z,316.00
2022-12-04T10:42:22.410Z,316.00
2022-12-04T10:43:22.420Z,312.00
2022-12-04T10:44:22.424Z,316.00
2022-12-04T10:45:22.433Z,316.00
2022-12-04T10:46:22.495Z,312.00
2022-12-04T10:47:22.444Z,312.00
2022-12-04T10:48:22.468Z,312.00
2022-12-04T10:49:22.462Z,312.00
2022-12-04T10:50:22.463Z,308.00
2022-12-04T10:51:22.468Z,312.00
2022-12-04T10:52:22.473Z,312.00
2022-12-04T10:53:22.482Z,312.00
2022-12-04T10:54:22.483Z,312.00
2022-12-04T10:55:22.492Z,312.00
2022-12-04T10:56:22.510Z,312.00
2022-12-04T10:57:22.509Z,312.00
2022-12-04T10:58:22.518Z,312.00
2022-12-04T10:59:22.526Z,312.00
2022-12-04T11:00:22.516Z,316.00
2022-12-04T11:01:22.600Z,316.00
2022-12-04T11:02:22.665Z,316.00
2022-12-04T11:03:22.676Z,316.00
2022-12-04T11:04:22.560Z,320.00
2022-12-04T11:05:22.550Z,328.00
2022-12-04T11:06:22.550Z,332.00
2022-12-04T11:07:22.569Z,340.00
2022-12-04T11:08:22.601Z,352.00
2022-12-04T11:09:22.571Z,360.00
2022-12-04T11:10:22.583Z,364.00
2022-12-04T11:11:22.593Z,368.00
2022-12-04T11:12:22.587Z,376.00
2022-12-04T11:13:22.598Z,384.00
2022-12-04T11:14:22.596Z,392.00
2022-12-04T11:15:22.606Z,400.00
2022-12-04T11:16:22.685Z,412.00
2022-12-04T11:17:22.622Z,424.00
2022-12-04T11:18:22.620Z,448.00
2022-12-04T11:19:22.633Z,456.00
2022-12-04T11:20:22.671Z,484.00
2022-12-04T11:21:22.643Z,508.00
2022-12-04T11:22:22.647Z,536.00
2022-12-04T11:23:22.659Z,548.00
2022-12-04T11:24:22.659Z,572.00
2022-12-04T11:25:22.680Z,624.00
2022-12-04T11:26:22.668Z,668.00
2022-12-04T11:27:22.681Z,720.00
2022-12-04T11:28:40.708Z,748.00
2022-12-04T11:29:22.691Z,776.00
2022-12-04T11:30:22.807Z,804.00
2022-12-04T11:31:22.813Z,780.00
2022-12-04T11:32:22.714Z,800.00
2022-12-04T11:33:22.720Z,828.00
2022-12-04T11:34:22.716Z,832.00
2022-12-04T11:35:22.730Z,840.00
2022-12-04T11:36:22.752Z,844.00
2022-12-04T11:37:22.739Z,876.00
2022-12-04T11:38:22.755Z,900.00
2022-12-04T11:39:22.750Z,828.00
2022-12-04T11:40:22.759Z,704.00
2022-12-04T11:41:22.777Z,788.00
2022-12-04T11:42:22.768Z,848.00
2022-12-04T11:43:22.781Z,732.00
2022-12-04T11:44:22.781Z,736.00
2022-12-04T11:45:22.791Z,760.00
2022-12-04T11:46:22.842Z,728.00
2022-12-04T11:47:22.805Z,812.00
2022-12-04T11:48:22.809Z,896.00
2022-12-04T11:49:22.836Z,812.00
2022-12-04T11:50:22.820Z,740.00
2022-12-04T11:51:22.827Z,768.00
2022-12-04T11:52:22.858Z,788.00
2022-12-04T11:53:22.844Z,752.00
2022-12-04T11:54:22.845Z,704.00
2022-12-04T11:55:28.489Z,732.00
2022-12-04T11:56:22.917Z,712.00
2022-12-04T11:57:22.869Z,776.00
2022-12-04T11:58:22.873Z,764.00
2022-12-04T11:59:22.877Z,788.00
2022-12-04T12:00:22.895Z,816.00
2022-12-04T12:01:22.890Z,764.00
2022-12-04T12:02:23.043Z,816.00
2022-12-04T12:03:23.145Z,776.00
2022-12-04T12:04:22.915Z,768.00
2022-12-04T12:05:22.918Z,720.00
2022-12-04T12:06:22.940Z,536.00
2022-12-04T12:07:22.932Z,512.00
2022-12-04T12:08:22.967Z,500.00
2022-12-04T12:09:22.947Z,492.00
2022-12-04T12:10:22.956Z,484.00
2022-12-04T12:11:22.966Z,488.00
2022-12-04T12:12:22.969Z,516.00
2022-12-04T12:13:22.976Z,504.00
2022-12-04T12:14:22.985Z,504.00
2022-12-04T12:15:22.986Z,508.00
2022-12-04T12:16:23.047Z,532.00
2022-12-04T12:17:23.005Z,588.00
2022-12-04T12:18:23.014Z,708.00
2022-12-04T12:19:23.020Z,796.00
2022-12-04T12:20:23.025Z,796.00
2022-12-04T12:21:23.030Z,928.00
2022-12-04T12:22:23.145Z,1004.00
2022-12-04T12:23:23.043Z,1324.00
2022-12-04T12:24:23.076Z,1428.00
2022-12-04T12:25:23.057Z,1596.00
2022-12-04T12:26:23.068Z,1452.00
2022-12-04T12:27:23.090Z,1392.00
2022-12-04T12:28:23.083Z,1524.00
2022-12-04T12:29:23.085Z,1520.00
2022-12-04T12:30:23.098Z,1508.00
2022-12-04T12:31:23.175Z,1484.00
2022-12-04T12:32:23.111Z,1464.00
2022-12-04T12:33:23.125Z,1464.00
2022-12-04T12:34:23.125Z,1468.00
2022-12-04T12:35:23.129Z,1456.00
2022-12-04T12:36:23.145Z,1452.00
2022-12-04T12:37:23.147Z,1432.00
2022-12-04T12:38:23.185Z,1428.00
2022-12-04T12:39:23.161Z,1424.00
2022-12-04T12:40:23.197Z,1420.00
2022-12-04T12:41:23.179Z,1420.00
2022-12-04T12:42:23.195Z,1416.00
2022-12-04T12:43:23.264Z,1416.00
2022-12-04T12:44:23.208Z,1420.00
2022-12-04T12:45:23.213Z,1408.00
2022-12-04T12:46:23.366Z,1388.00
2022-12-04T12:47:23.232Z,1396.00
2022-12-04T12:48:23.248Z,1368.00
2022-12-04T12:49:23.246Z,1276.00
2022-12-04T12:50:23.264Z,1160.00
2022-12-04T12:51:30.950Z,1036.00
2022-12-04T12:52:23.276Z,752.00
2022-12-04T12:53:23.290Z,724.00
2022-12-04T12:54:23.299Z,848.00
2022-12-04T12:55:23.301Z,984.00
2022-12-04T12:56:23.337Z,1012.00